Airfield :
LOGIN :

Register | Disclaimer

   EN    FR    IT 

 










Legend :    VFR   Marginal VFR   IFR   Intensive IFR   Very Intensive IFR
Visi :
Ceiling :
>= 8 km
>= 3000ft
5 to 8 km
1000 to 3000 ft
1500m to 5 km
500 to 1000 ft
800 to 1500m
200 to 500 ft
< 800m
< 200 ft
Symbols :   Thunderstorms  Fog  Heavy snow  Heavy precipitations  Wind > 20 kt
SIGMETs :     Misc.  Thunderstorms  Icing  Turbulence  Mountain Waves  Volcanic Ashes







- Airport Elevation : 313 ft
- IATA code : LEH
- Download approach charts


LFOH - Le Havre Octeville

CURRENT METAR :
  • 210700Z AUTO 04002KT 6000 NSC M02/M03 Q1023 NOSIG

EXPIRED METARs :
  • 210630Z AUTO 00000KT 6000 NSC M01/M03 Q1023 NOSIG
  • 210600Z AUTO 00000KT 6000 NSC M02/M04 Q1023 NOSIG
  • 210530Z AUTO 08006KT 6000 NSC M01/M03 Q1023 NOSIG
  • 210500Z AUTO 07006KT 6000 NSC M00/M02 Q1023
  • 210430Z AUTO 06007KT 8000 NSC 00/M02 Q1023
  • 210400Z AUTO 05005KT CAVOK 01/M02 Q1023

TAF TAF LFOH
Valid from the 21 at 06:00 until the 22 at 06:00 UTC


210500Z 2106/2206 09005KT 8000 SCT025
BECMG 2118/2120 21010KT
TEMPO 2201/2206 24020G30KT
TEMPO 2203/2206 3000 RA OVC008
ATIS : +33 2 35 54 64 93
No reported NOTAMs for that airfield.



MET'MAP, your aeronautical weather chart ! - Copyright ORBIFLY December 2007 - Disclaimer

ORBIFLY MET'MAP TEAM :

Programming & Development : Alexandra Zaïnal
Concept & Development : Baudouin d'Aumeries
Co-Development & Prog : Marc-Olivier Méhu
Technical & hardware support : Manuel Goepfert

Contact : metmap@orbifly.com




SOURCES & CREDITS :

   NOAA